• Join FlightAware (Why Join?)
  • Login
  • US Flag 
11:13PM EST


 

Airport Tracker/Info


-or-


 

Live Flight TrackerFlight Track Log ✈ N931ED ✈ 11-Dec-2013 ✈ KMSO - KOLM

Flight Track Log - Related Links

Times and Time Zones

All times are in EST time to prevent confusion due to time zone crossing. See the N931ED flight status page for this flight to view local times or setup timezone preferences in your user account.

Time Position Orientation Groundspeed Altitude Reporting Facility
EST Latitude Longitude Course Direction KTS MPH feet Rate Location/Type
06:43PM 46.9628 -114.1614 292° West 228 262 7,700  Level Salt Lake Center
06:44PM 46.9853 -114.2442 292° West 234 269 11,800 3,720 Climbing Salt Lake Center
06:45PM 46.9775 -114.3611 264° West 271 312 15,400 3,240 Climbing Salt Lake Center
06:46PM 46.9756 -114.4756 269° West 282 325 18,500 2,700 Climbing Salt Lake Center
06:47PM 46.9725 -114.5828 268° West 283 326 21,000 2,460 Climbing Salt Lake Center
06:48PM 46.9692 -114.7039 268° West 297 342 23,700 2,280 Climbing Salt Lake Center
06:49PM 46.9683 -114.8350 270° West 318 366 25,700 2,040 Climbing Salt Lake Center
06:50PM 46.9644 -114.9694 268° West 330 380 27,900 2,040 Climbing Salt Lake Center
06:51PM 46.9578 -115.1075 266° West 340 391 30,000 2,040 Climbing Salt Lake Center
06:52PM 46.9550 -115.2803 269° West 355 409 32,100 1,980 Climbing Salt Lake Center
06:53PM 46.9497 -115.4283 267° West 363 418 34,100 2,100 Climbing Salt Lake Center
06:54PM 46.9467 -115.5786 268° West 369 425 36,500 2,280 Climbing Salt Lake Center
06:55PM 46.9408 -115.7197 267° West 359 413 38,800 1,680 Climbing Salt Lake Center
06:56PM 46.9358 -115.8575 267° West 347 399 40,000 480 Climbing Salt Lake Center
06:58PM 46.9275 -116.0631 267° West 372 428 40,000  Level Seattle Center
06:59PM 46.9206 -116.2222 266° West 387 445 40,000  Level Seattle Center
07:00PM 46.9147 -116.3808 267° West 390 449 40,000  Level Seattle Center
07:01PM 46.9081 -116.5406 267° West 393 452 40,000  Level Seattle Center
07:02PM 46.9014 -116.6992 267° West 391 450 40,000  Level Seattle Center
07:03PM 46.8944 -116.8567 266° West 389 448 40,000  Level Seattle Center
07:04PM 46.8875 -117.0142 266° West 388 447 40,000  Level Seattle Center
07:05PM 46.8800 -117.1742 266° West 392 451 40,000  Level Seattle Center
07:06PM 46.8731 -117.3319 266° West 390 449 40,000  Level Seattle Center
07:07PM 46.8647 -117.4903 266° West 390 449 40,000  Level Seattle Center
07:08PM 46.8564 -117.6481 266° West 390 449 40,000  Level Seattle Center
07:09PM 46.8456 -117.8364 265° West 387 445 40,000  Level Seattle Center
07:10PM 46.8375 -117.9953 266° West 392 451 40,000  Level Seattle Center
07:11PM 46.8289 -118.1539 266° West 393 452 40,000  Level Seattle Center
07:12PM 46.8200 -118.3119 265° West 392 451 40,000  Level Seattle Center
07:13PM 46.8094 -118.4700 264° West 391 450 40,000  Level Seattle Center
07:14PM 46.8014 -118.6292 266° West 393 452 40,000  Level Seattle Center
07:15PM 46.7906 -118.7850 264° West 390 449 40,000  Level Seattle Center
07:16PM 46.7808 -118.9456 265° West 394 453 40,000  Level Seattle Center
07:17PM 46.7711 -119.1031 265° West 393 452 40,000  Level Seattle Center
07:18PM 46.7608 -119.2497 264° West 388 447 40,000  Level Seattle Center
07:19PM 46.7489 -119.4403 265° West 393 452 40,000 -480 Level Seattle Center
07:20PM 46.7381 -119.5983 264° West 394 453 39,100 -1,680 Descending Seattle Center
07:21PM 46.7258 -119.7597 264° West 399 459 36,700 -2,460 Descending Seattle Center
07:22PM 46.7144 -119.9239 264° West 405 466 34,100 -2,580 Descending Seattle Center
07:23PM 46.7022 -120.0861 264° West 420 483 31,500 -2,580 Descending Seattle Center
07:24PM 46.6894 -120.2578 264° West 427 491 28,900 -2,580 Descending Seattle Center
07:25PM 46.6778 -120.4214 264° West 417 480 26,300 -2,400 Descending Seattle Center
07:26PM 46.6653 -120.5850 264° West 412 474 24,100 -1,200 Descending Seattle Center
07:27PM 46.6511 -120.7411 263° West 402 463 24,000 -60 Descending Seattle Center
07:28PM 46.6400 -120.8900 264° West 387 445 24,000 -420 Level Seattle Center
07:29PM 46.6286 -121.0378 264° West 377 434 23,200 -1,500 Descending Seattle Center
07:30PM 46.6167 -121.1906 264° West 378 435 21,000 -1,560 Descending Seattle Center
07:31PM 46.6025 -121.3514 263° West 390 449 20,100 -540 Descending Seattle Center
07:32PM 46.5878 -121.5250 263° West 367 422 20,000 -180 Descending Seattle Center
07:33PM 46.5789 -121.6508 264° West 353 406 19,800 -1,260 Descending Seattle Center
07:34PM 46.6225 -121.7889 295° West 391 450 17,500 -2,520 Descending Seattle Center
07:34PM 46.6300 -121.8044 305° West 376 433 17,200 -2,640 Descending Seattle Center
07:35PM 46.6653 -121.9047 297° West 368 423 15,300 -2,040 Descending Seattle Center
07:35PM 46.6694 -121.9169 296° West 368 423 15,200 -2,760 Descending Seattle Center
07:36PM 46.7069 -122.0472 293° West 358 412 12,100 -2,760 Descending Seattle Center
07:37PM 46.7653 -122.1606 307° West 321 369 9,900 -2,100 Descending Seattle Center
07:37PM 46.7706 -122.1656 327° Northwest 328 377 10,000 -480 Climbing Seattle Center
07:38PM 46.8153 -122.2336 314° West 261 300 9,500 -840 Descending Seattle Center
07:38PM 46.8222 -122.2483 305° West 277 319 9,200 -1,500 Descending Seattle Center
07:39PM 46.8653 -122.3164 313° West 264 304 8,000 -1,500 Descending Seattle Center
07:39PM 46.8722 -122.3289 309° West 268 308 7,700 -1,380 Descending Seattle Center
07:40PM 46.9108 -122.3986 309° West 261 300 6,600 -1,380 Descending Seattle Center
07:40PM 46.9219 -122.4158 313° West 260 299 6,300 -540 Descending Seattle Center
07:41PM 46.9689 -122.4869 314° West 262 302 6,000 -300 Descending Seattle Center
07:41PM 46.9728 -122.4925 316° Northwest 265 305 6,000  Level Seattle Center
07:42PM 47.0183 -122.5675 312° West 263 303 6,000  Level Seattle Center
07:42PM 47.0206 -122.5722 305° West 260 299 6,000 60 Level Seattle Center
07:43PM 47.0594 -122.6428 309° West 259 298 6,100 60 Climbing Seattle Center
07:43PM 47.0681 -122.6525 322° Northwest 260 299 6,100 -660 Level Seattle Center
07:44PM 47.1133 -122.7242 313° West 258 297 5,400 -900 Descending Seattle Center
07:44PM 47.1158 -122.7297 303° West 258 297 5,200 -2,220 Descending Seattle Center
07:45PM 47.1569 -122.8014 310° West 248 285 3,200 -2,100 Descending Seattle Center
07:45PM 47.1631 -122.8131 308° West 248 285 3,100 -900 Descending Seattle Center
07:46PM 47.1397 -122.8561 231° Southwest 177 204 2,300 -720 Descending Seattle Center
07:47PM 47.1333 -122.8572 187° South 176 203 2,400 180 Climbing Seattle Center
07:47PM 47.0983 -122.8686 192° South 137 158 2,500 60 Climbing Seattle Center
07:48PM 47.0925 -122.8689 182° South 152 175 2,500 -600 Level Seattle Center
07:48PM 47.0553 -122.8819 193° South 142 163 1,900 -720 Descending Seattle Center
07:49PM 47.0531 -122.8794 143° Southeast 145 167 1,800 -720 Descending Seattle Center
07:49PM 47.0217 -122.8900 193° South 128 147 1,200 -600 Descending Seattle Center
07:50PM 47.0192 -122.8892 167° South 128 147 1,200 -360 Level Seattle Center
07:51PM 46.9822 -122.9033 195° South 127 146 800 -420 Descending Seattle Center
07:53PM 46.9667 -122.9000 241° Southwest  Level FlightAware Approximate